createdAt,value
2023-05-01T00:01:17.769Z,83.87
2023-05-01T00:06:22.198Z,84.03
2023-05-01T00:11:24.967Z,84.51
2023-05-01T00:16:27.756Z,84.82
2023-05-01T00:21:31.114Z,85.31
2023-05-01T00:26:33.894Z,85.35
2023-05-01T00:31:36.859Z,85.80
2023-05-01T00:36:40.412Z,86.14
2023-05-01T00:41:43.225Z,86.15
2023-05-01T00:46:46.125Z,86.25
2023-05-01T00:51:53.392Z,86.21
2023-05-01T00:56:56.537Z,86.22
2023-05-01T01:01:59.565Z,86.16
2023-05-01T01:07:10.652Z,85.77
2023-05-01T01:12:27.573Z,85.64
2023-05-01T01:17:42.449Z,86.02
2023-05-01T01:22:53.540Z,86.06
2023-05-01T01:28:11.797Z,86.23
2023-05-01T01:33:24.098Z,86.12
2023-05-01T01:38:36.528Z,86.06
2023-05-01T01:43:44.117Z,86.08
2023-05-01T01:48:51.560Z,86.69
2023-05-01T01:53:58.802Z,86.99
2023-05-01T01:59:04.583Z,86.98
2023-05-01T02:04:08.939Z,86.87
2023-05-01T02:09:12.929Z,86.60
2023-05-01T02:14:18.507Z,86.60
2023-05-01T02:19:21.853Z,86.98
2023-05-01T02:24:25.503Z,87.17
2023-05-01T02:29:28.374Z,87.75
2023-05-01T02:34:34.847Z,87.85
2023-05-01T02:39:38.711Z,87.95
2023-05-01T02:45:11.671Z,88.35
2023-05-01T02:50:16.318Z,88.96
2023-05-01T02:55:19.675Z,89.21
2023-05-01T03:00:23.613Z,89.95
2023-05-01T03:05:27.023Z,89.93
2023-05-01T03:10:29.768Z,90.24
2023-05-01T03:15:32.576Z,90.32
2023-05-01T03:20:35.580Z,90.55
2023-05-01T03:25:38.328Z,91.19
2023-05-01T03:30:41.028Z,91.47
2023-05-01T03:35:44.434Z,91.52
2023-05-01T03:40:47.498Z,91.64
2023-05-01T03:45:51.450Z,91.78
2023-05-01T03:50:54.229Z,91.45
2023-05-01T03:55:57.560Z,90.92
2023-05-01T04:01:01.085Z,90.47
2023-05-01T04:06:04.189Z,89.79
2023-05-01T04:11:07.610Z,89.53
2023-05-01T04:16:10.592Z,89.18
2023-05-01T04:21:14.736Z,88.58
2023-05-01T04:26:17.668Z,87.99
2023-05-01T04:31:20.552Z,87.32
2023-05-01T04:36:23.535Z,86.48
2023-05-01T04:41:26.357Z,85.42
2023-05-01T04:46:29.273Z,84.19
2023-05-01T04:51:32.245Z,83.39
2023-05-01T04:56:35.162Z,82.80
2023-05-01T05:01:37.997Z,81.62
2023-05-01T05:06:40.822Z,80.12
2023-05-01T05:11:43.891Z,77.84
2023-05-01T05:16:47.003Z,77.04
2023-05-01T05:21:49.868Z,75.13
2023-05-01T05:26:52.785Z,72.76
2023-05-01T05:31:57.221Z,69.40
2023-05-01T05:36:59.964Z,64.46
2023-05-01T05:42:04.241Z,60.52
2023-05-01T05:47:07.282Z,58.86
2023-05-01T05:52:10.084Z,55.76
2023-05-01T05:57:13.074Z,53.95
2023-05-01T06:02:16.032Z,51.35
2023-05-01T06:07:18.899Z,48.22
2023-05-01T06:12:21.793Z,46.71
2023-05-01T06:17:25.621Z,45.05
2023-05-01T06:22:28.440Z,42.96
2023-05-01T06:27:31.194Z,40.97
2023-05-01T06:32:33.952Z,39.89
2023-05-01T06:37:38.511Z,38.87
2023-05-01T06:42:42.224Z,37.45
2023-05-01T06:47:45.127Z,35.45
2023-05-01T06:52:48.010Z,34.50
2023-05-01T06:57:50.894Z,33.40
2023-05-01T07:02:53.841Z,31.95
2023-05-01T07:08:01.170Z,31.17
2023-05-01T07:13:04.527Z,30.02
2023-05-01T07:18:07.345Z,29.09
2023-05-01T07:23:10.439Z,28.45
2023-05-01T07:28:13.228Z,27.36
2023-05-01T07:33:16.753Z,26.53
2023-05-01T07:38:19.702Z,25.77
2023-05-01T07:43:23.222Z,25.71
2023-05-01T07:48:28.449Z,25.55
2023-05-01T07:53:31.957Z,25.30
2023-05-01T07:58:36.442Z,25.13
2023-05-01T08:03:39.449Z,24.23
2023-05-01T08:08:42.418Z,23.90
2023-05-01T08:13:45.329Z,23.65
2023-05-01T08:18:48.086Z,22.53
2023-05-01T08:23:51.431Z,22.04
2023-05-01T08:28:54.268Z,20.76
2023-05-01T08:33:57.658Z,20.50
2023-05-01T08:39:00.479Z,20.33
2023-05-01T08:44:04.438Z,19.51
2023-05-01T08:49:11.617Z,18.69
2023-05-01T08:54:15.928Z,17.65
2023-05-01T08:59:20.706Z,17.64
2023-05-01T09:04:23.914Z,17.49
2023-05-01T09:09:28.007Z,17.24
2023-05-01T09:14:32.048Z,17.03
2023-05-01T09:19:34.920Z,16.73
2023-05-01T09:24:37.658Z,16.60
2023-05-01T09:29:46.110Z,16.02
2023-05-01T09:34:50.711Z,15.80
2023-05-01T09:40:11.382Z,15.78
2023-05-01T09:45:15.304Z,15.93
2023-05-01T09:50:35.000Z,15.55
2023-05-01T09:55:37.978Z,14.96
2023-05-01T10:00:50.082Z,14.63
2023-05-01T10:05:53.103Z,14.03
2023-05-01T10:11:05.377Z,14.06
2023-05-01T10:16:27.927Z,13.99
2023-05-01T10:21:34.523Z,14.20
2023-05-01T10:26:38.078Z,14.30
2023-05-01T10:31:42.703Z,14.38
2023-05-01T10:36:53.700Z,13.89
2023-05-01T10:41:59.722Z,13.36
2023-05-01T10:47:24.811Z,13.85
2023-05-01T10:52:27.901Z,13.39
2023-05-01T10:57:44.592Z,12.55
2023-05-01T11:02:47.386Z,13.15
2023-05-01T11:08:29.192Z,13.34
2023-05-01T11:14:04.369Z,12.94
2023-05-01T11:19:23.336Z,12.55
2023-05-01T11:24:33.153Z,12.66
2023-05-01T11:29:37.716Z,12.35
2023-05-01T11:34:40.853Z,12.39
2023-05-01T11:39:51.127Z,12.78
2023-05-01T11:45:08.008Z,12.63
2023-05-01T11:50:11.714Z,12.73
2023-05-01T11:55:14.617Z,13.37
2023-05-01T12:00:27.946Z,13.63
2023-05-01T12:05:32.148Z,13.19
2023-05-01T12:10:36.359Z,13.04
2023-05-01T12:15:50.809Z,13.15
2023-05-01T12:20:55.437Z,12.92
2023-05-01T12:25:58.399Z,12.50
2023-05-01T12:31:05.173Z,12.79
2023-05-01T12:36:13.013Z,12.69
2023-05-01T12:41:15.800Z,12.63
2023-05-01T12:46:18.707Z,12.84
2023-05-01T12:51:22.989Z,12.87
2023-05-01T12:56:26.027Z,12.91
2023-05-01T13:01:29.319Z,13.39
2023-05-01T13:06:35.555Z,13.73
2023-05-01T13:11:39.007Z,13.80
2023-05-01T13:16:49.840Z,14.12
2023-05-01T13:21:52.675Z,14.62
2023-05-01T13:27:02.377Z,15.52
2023-05-01T13:32:11.088Z,15.63
2023-05-01T13:37:14.114Z,16.39
2023-05-01T13:42:27.253Z,16.86
2023-05-01T13:47:30.105Z,17.29
2023-05-01T13:52:33.059Z,17.50
2023-05-01T13:57:38.559Z,17.63
2023-05-01T14:02:48.774Z,17.90
2023-05-01T14:07:57.199Z,18.18
2023-05-01T14:13:00.641Z,18.73
2023-05-01T14:18:07.551Z,19.63
2023-05-01T14:23:10.772Z,19.35
2023-05-01T14:28:14.812Z,19.71
2023-05-01T14:33:17.756Z,20.40
2023-05-01T14:38:25.850Z,21.19
2023-05-01T14:43:28.721Z,21.43
2023-05-01T14:48:36.014Z,22.34
2023-05-01T14:53:42.629Z,22.86
2023-05-01T14:58:46.968Z,23.27
2023-05-01T15:03:50.056Z,23.34
2023-05-01T15:08:53.114Z,23.20
2023-05-01T15:13:56.336Z,22.48
2023-05-01T15:18:59.610Z,22.68
2023-05-01T15:24:02.941Z,23.37
2023-05-01T15:29:05.678Z,23.73
2023-05-01T15:34:08.475Z,24.36
2023-05-01T15:39:12.109Z,25.66
2023-05-01T15:44:15.205Z,26.42
2023-05-01T15:49:18.677Z,26.73
2023-05-01T15:54:21.891Z,27.00
2023-05-01T15:59:25.672Z,27.62
2023-05-01T16:04:28.520Z,27.63
2023-05-01T16:09:32.433Z,27.97
2023-05-01T16:14:42.225Z,28.08
2023-05-01T16:19:45.970Z,27.97
2023-05-01T16:24:49.234Z,27.99
2023-05-01T16:29:52.347Z,27.81
2023-05-01T16:34:55.064Z,28.12
2023-05-01T16:39:59.649Z,28.66
2023-05-01T16:45:02.949Z,28.73
2023-05-01T16:50:09.824Z,29.21
2023-05-01T16:55:13.279Z,29.69
2023-05-01T17:00:17.139Z,30.10
2023-05-01T17:05:20.499Z,30.48
2023-05-01T17:10:23.278Z,30.94
2023-05-01T17:15:26.305Z,31.39
2023-05-01T17:20:29.067Z,31.86
2023-05-01T17:25:32.077Z,32.37
2023-05-01T17:30:35.446Z,32.98
2023-05-01T17:35:38.295Z,33.78
2023-05-01T17:40:41.306Z,34.43
2023-05-01T17:45:45.685Z,35.16
2023-05-01T17:50:49.161Z,35.71
2023-05-01T17:55:51.999Z,36.23
2023-05-01T18:00:55.899Z,36.91
2023-05-01T18:06:04.574Z,37.50
2023-05-01T18:11:07.532Z,38.08
2023-05-01T18:16:11.325Z,38.39
2023-05-01T18:21:14.782Z,38.80
2023-05-01T18:26:17.881Z,39.24
2023-05-01T18:31:20.916Z,39.95
2023-05-01T18:36:24.204Z,40.13
2023-05-01T18:41:27.419Z,40.48
2023-05-01T18:46:30.362Z,41.03
2023-05-01T18:51:33.435Z,41.56
2023-05-01T18:56:36.230Z,42.03
2023-05-01T19:01:39.093Z,42.30
2023-05-01T19:06:41.949Z,42.55
2023-05-01T19:11:44.938Z,42.72
2023-05-01T19:16:47.914Z,42.64
2023-05-01T19:21:51.213Z,42.72
2023-05-01T19:26:54.054Z,42.77
2023-05-01T19:31:57.034Z,42.97
2023-05-01T19:37:02.084Z,43.09
2023-05-01T19:42:05.006Z,43.45
2023-05-01T19:47:07.832Z,43.66
2023-05-01T19:52:10.678Z,43.60
2023-05-01T19:57:13.462Z,43.72
2023-05-01T20:02:16.485Z,44.32
2023-05-01T20:07:19.341Z,44.88
2023-05-01T20:12:25.117Z,45.34
2023-05-01T20:17:28.026Z,45.84
2023-05-01T20:22:30.773Z,46.32
2023-05-01T20:27:33.729Z,46.75
2023-05-01T20:37:44.862Z,47.51
2023-05-01T20:42:47.766Z,48.10
2023-05-01T20:47:50.582Z,48.44
2023-05-01T20:52:55.681Z,48.91
2023-05-01T20:57:58.759Z,49.09
2023-05-01T21:03:01.957Z,49.85
2023-05-01T21:08:04.943Z,50.79
2023-05-01T21:13:07.673Z,51.12
2023-05-01T21:18:14.337Z,51.30
2023-05-01T21:23:17.899Z,51.52
2023-05-01T21:28:20.865Z,51.79
2023-05-01T21:33:23.687Z,52.01
2023-05-01T21:38:26.786Z,51.78
2023-05-01T21:43:33.795Z,52.10
2023-05-01T21:48:36.586Z,52.59
2023-05-01T21:53:41.120Z,52.87
2023-05-01T21:58:44.007Z,53.03
2023-05-01T22:03:46.909Z,53.20
2023-05-01T22:08:53.215Z,53.44
2023-05-01T22:13:56.946Z,53.72
2023-05-01T22:19:00.596Z,54.02
2023-05-01T22:24:03.605Z,53.93
2023-05-01T22:29:06.981Z,53.92
2023-05-01T22:34:10.049Z,53.98
2023-05-01T22:39:12.799Z,54.10
2023-05-01T22:44:15.993Z,53.96
2023-05-01T22:49:19.008Z,53.96
2023-05-01T22:54:22.230Z,54.19
2023-05-01T22:59:26.043Z,54.28
2023-05-01T23:04:29.427Z,54.19
2023-05-01T23:09:32.563Z,54.29
2023-05-01T23:14:41.188Z,54.18
2023-05-01T23:19:45.620Z,54.23
2023-05-01T23:24:49.437Z,54.14
2023-05-01T23:29:54.896Z,54.16
2023-05-01T23:35:05.126Z,54.15
2023-05-01T23:40:09.642Z,54.24
2023-05-01T23:45:12.974Z,54.35
2023-05-01T23:50:16.197Z,54.33
2023-05-01T23:55:19.083Z,54.52
